VOBG/BLR METAR and TAF weather

Enter ICAO airport designator
Station Type Date Time Source
VOBG METAR 2021/05/17 15:30 UTC NOAA

VOBG 171530Z 24012KT 6000 SCT012 FEW025CB BKN080 25/23 Q1012 NOSIG


Station Type Date Time Source
VOBG Decoded METAR 2021/05/17 15:30 UTC NOAA

Bangalore / Hindustan, India (VOBG) 12-57N 077-40E
May 17, 2021 - 11:30 AM EDT / 2021.05.17 1530 UTC
Wind: from the WSW (240 degrees) at 14 MPH (12 KT):0
Visibility: 3 mile(s):0
Sky conditions: mostly cloudy
Weather: Cumulonimbus clouds observed
Temperature: 77 F (25 C)
Dew Point: 73 F (23 C)
Relative Humidity: 88%
Pressure (altimeter): 29.88 in. Hg (1012 hPa)
ob: VOBG 171530Z 24012KT 6000 SCT012 FEW025CB BKN080 25/23 Q1012 NOSIG
cycle: 15

Station Type Date Time Source
VOBG TAF 2021/05/01 09:00 UTC NOAA

TAF VOBG 010800Z 0109/0118 09010KT 6000 SCT015
TEMPO 0112/0118 5000 TSRA RA SCT015 SCT020 FEW025CB BKN080

Example: see airport list